Time;durP1;ratioP1;P1;durP2;ratioP2;P2;SDS_P1;SDS_P2;PMS_P1;PMS_P2;Temp;Humidity;BMP_temperature;BMP_pressure;BME280_temperature;BME280_humidity;BME280_pressure;Samples;Min_cycle;Max_cycle;Signal;HPM_P1;HPM_P2
2021/12/13 00:00:19;;;;;;;11.67;7.33;;;;;;;4.02;64.05;100231.56;5044554;28;20714;-65
2021/12/13 00:02:52;;;;;;;9.73;7.13;;;;;;;4.12;64.11;100234.34;5033673;28;20701;-64
2021/12/13 00:05:58;;;;;;;12.67;7.17;;;;;;;4.09;64.28;100235.41;5044873;28;20216;-64
2021/12/13 00:08:31;;;;;;;8.60;7.17;;;;;;;3.77;65.30;100227.31;5003289;28;20224;-65
2021/12/13 00:11:21;;;;;;;10.27;6.70;;;;;;;4.20;63.63;100228.44;5036545;28;20223;-65
2021/12/13 00:13:53;;;;;;;8.87;7.00;;;;;;;3.87;64.91;100220.38;5034871;28;20231;-65
2021/12/13 00:16:42;;;;;;;8.73;6.73;;;;;;;4.22;64.36;100234.47;5043256;28;20303;-65
2021/12/13 00:19:21;;;;;;;10.07;7.27;;;;;;;4.48;63.49;100233.25;5034705;28;20224;-64
2021/12/13 00:21:57;;;;;;;11.67;7.60;;;;;;;4.33;63.37;100211.56;5045557;28;20708;-64
2021/12/13 00:24:32;;;;;;;9.87;7.27;;;;;;;4.03;63.92;100217.41;5036792;28;20227;-64
2021/12/13 00:27:02;;;;;;;10.47;7.13;;;;;;;4.23;64.01;100229.09;5031627;28;20604;-65
2021/12/13 00:29:59;;;;;;;9.43;7.00;;;;;;;4.48;63.42;100233.25;5042909;28;20331;-64
2021/12/13 00:32:57;;;;;;;9.53;7.40;;;;;;;4.53;63.45;100243.47;5047282;28;20251;-65
2021/12/13 00:35:40;;;;;;;9.90;6.97;;;;;;;4.02;64.29;100220.16;5036810;28;20222;-64
2021/12/13 00:38:10;;;;;;;9.73;7.63;;;;;;;3.96;64.54;100227.59;5030849;28;20225;-65
2021/12/13 00:40:47;;;;;;;10.07;6.93;;;;;;;4.41;63.06;100240.00;5034992;28;20229;-65
2021/12/13 00:43:21;;;;;;;10.17;6.67;;;;;;;3.75;64.90;100230.06;5026231;28;20647;-65
2021/12/13 00:45:58;;;;;;;11.47;7.37;;;;;;;4.36;63.84;100250.06;5030911;28;20228;-65
2021/12/13 00:48:29;;;;;;;11.13;7.70;;;;;;;4.56;62.92;100250.34;5043463;28;20732;-65
2021/12/13 00:51:05;;;;;;;8.93;7.10;;;;;;;4.25;64.00;100237.72;5047648;28;20724;-65
2021/12/13 00:53:39;;;;;;;9.43;6.50;;;;;;;3.90;64.33;100232.50;5044817;28;20228;-64
2021/12/13 00:56:44;;;;;;;11.13;6.80;;;;;;;4.53;63.12;100254.03;5033478;28;20721;-64
2021/12/13 00:59:20;;;;;;;10.47;7.00;;;;;;;3.83;64.89;100226.84;5024281;28;20654;-65
2021/12/13 01:01:59;;;;;;;10.27;6.73;;;;;;;3.20;65.51;100228.84;5039926;28;20244;-64
2021/12/13 01:04:45;;;;;;;10.63;7.20;;;;;;;3.96;64.36;100229.38;5047938;28;20223;-65
2021/12/13 01:07:21;;;;;;;9.30;6.90;;;;;;;4.23;64.33;100237.00;5046983;28;20591;-65
2021/12/13 01:10:19;;;;;;;12.27;7.40;;;;;;;4.00;64.31;100220.28;5041275;28;20225;-64
2021/12/13 01:12:48;;;;;;;11.30;7.63;;;;;;;4.42;62.89;100220.56;5047093;28;20227;-65
2021/12/13 01:15:32;;;;;;;10.33;7.13;;;;;;;4.11;63.84;100228.22;5047835;28;20226;-64
2021/12/13 01:18:57;;;;;;;11.67;7.50;;;;;;;4.02;64.22;100238.66;5024763;28;20341;-65
2021/12/13 01:21:17;;;;;;;11.90;7.47;;;;;;;4.36;62.86;100229.78;5046147;28;20365;-65
2021/12/13 01:23:50;;;;;;;9.53;6.67;;;;;;;4.47;63.01;100233.41;5046448;28;20220;-65
2021/12/13 01:26:56;;;;;;;12.97;7.50;;;;;;;3.95;64.23;100227.72;5046200;28;20224;-64
2021/12/13 01:29:20;;;;;;;8.63;6.73;;;;;;;4.12;64.04;100227.25;5044708;28;20496;-65
2021/12/13 01:32:00;;;;;;;10.80;7.53;;;;;;;3.77;64.20;100219.38;5047248;28;20628;-65
2021/12/13 01:34:30;;;;;;;10.47;6.77;;;;;;;3.92;64.96;100233.22;5040070;28;20233;-65
2021/12/13 01:37:14;;;;;;;8.13;6.77;;;;;;;3.87;64.12;100222.19;5046420;28;20228;-65
2021/12/13 01:39:48;;;;;;;10.10;6.70;;;;;;;3.86;64.87;100231.03;5044952;28;20224;-65
2021/12/13 01:42:19;;;;;;;8.50;6.13;;;;;;;3.94;64.77;100226.03;5046285;28;21528;-64
2021/12/13 01:44:53;;;;;;;11.07;6.97;;;;;;;4.34;63.57;100239.63;5044021;28;20230;-65
2021/12/13 01:47:27;;;;;;;10.03;7.13;;;;;;;4.65;62.57;100237.25;5047006;28;20224;-65
2021/12/13 01:50:08;;;;;;;10.70;6.87;;;;;;;4.23;63.80;100230.84;5045023;28;20273;-64
2021/12/13 01:52:38;;;;;;;9.27;6.97;;;;;;;4.59;62.70;100235.06;5041923;28;20848;-65
2021/12/13 01:55:12;;;;;;;11.47;7.77;;;;;;;4.32;63.01;100222.22;5046414;28;20224;-65
2021/12/13 01:57:47;;;;;;;8.10;6.47;;;;;;;4.53;62.85;100240.84;5045307;28;20222;-65
2021/12/13 02:00:21;;;;;;;9.63;6.50;;;;;;;4.06;64.05;100235.63;5045430;28;20241;-64
2021/12/13 02:02:53;;;;;;;8.50;6.90;;;;;;;3.91;65.27;100250.00;5045288;28;20256;-65
2021/12/13 02:05:28;;;;;;;11.43;7.60;;;;;;;4.23;63.94;100244.94;5046184;28;20227;-65
2021/12/13 02:08:11;;;;;;;11.00;7.70;;;;;;;3.92;65.27;100249.06;5036578;28;20227;-65
2021/12/13 02:10:48;;;;;;;9.10;7.30;;;;;;;3.77;65.72;100238.69;5032053;28;20230;-65
2021/12/13 02:13:23;;;;;;;8.50;6.90;;;;;;;4.27;64.57;100240.25;5043397;28;20261;-64
2021/12/13 02:18:43;;;;;;;9.53;6.70;;;;;;;3.99;65.42;100245.00;5023268;28;20217;-64
2021/12/13 02:21:27;;;;;;;9.70;7.13;;;;;;;3.56;67.26;100256.16;5038230;28;20234;-63
2021/12/13 02:23:59;;;;;;;8.60;7.33;;;;;;;3.52;67.71;100265.25;5038528;28;20229;-63
2021/12/13 02:26:29;;;;;;;9.90;6.87;;;;;;;3.88;66.11;100250.25;5041575;28;20787;-64
2021/12/13 02:29:04;;;;;;;11.27;7.47;;;;;;;3.71;66.90;100257.66;5044900;28;20220;-64
2021/12/13 02:31:35;;;;;;;12.57;8.17;;;;;;;3.71;66.81;100256.78;5046334;28;20605;-63
2021/12/13 02:34:10;;;;;;;11.63;8.27;;;;;;;4.32;65.65;100264.50;5022788;28;20224;-64
2021/12/13 02:36:41;;;;;;;10.33;8.43;;;;;;;4.04;66.12;100256.03;5030848;28;20220;-64
2021/12/13 02:39:25;;;;;;;10.10;7.63;;;;;;;3.93;67.08;100261.31;5041843;28;20222;-64
2021/12/13 02:41:53;;;;;;;11.23;8.53;;;;;;;4.07;66.42;100269.00;5043735;28;20729;-64
2021/12/13 02:44:40;;;;;;;12.70;9.00;;;;;;;3.96;66.03;100246.09;5025541;28;20232;-64
2021/12/13 02:47:21;;;;;;;10.30;8.13;;;;;;;3.96;66.36;100238.16;5022874;28;21479;-63
2021/12/13 02:49:50;;;;;;;12.83;8.00;;;;;;;4.64;64.44;100240.84;5044246;28;20234;-64
2021/12/13 02:52:19;;;;;;;13.20;8.30;;;;;;;3.47;68.57;100259.47;5042575;28;20224;-63
2021/12/13 02:54:51;;;;;;;10.90;8.17;;;;;;;3.54;68.79;100252.78;5045251;28;20234;-64
2021/12/13 02:57:23;;;;;;;9.83;7.80;;;;;;;3.79;68.33;100252.63;5045968;28;20216;-64
2021/12/13 03:00:34;;;;;;;14.53;8.63;;;;;;;4.34;67.16;100254.66;5043769;28;20601;-64
2021/12/13 03:03:05;;;;;;;12.83;8.97;;;;;;;3.96;68.62;100254.00;5027491;28;20650;-64
2021/12/13 03:05:37;;;;;;;15.57;9.20;;;;;;;4.08;68.23;100249.59;5045357;28;20234;-63
2021/12/13 03:08:16;;;;;;;17.03;9.80;;;;;;;3.63;70.19;100246.00;5045577;28;20245;-64
2021/12/13 03:10:49;;;;;;;14.17;10.73;;;;;;;3.78;70.63;100250.94;5028867;28;20977;-64
2021/12/13 03:13:18;;;;;;;13.10;10.33;;;;;;;3.88;70.82;100253.75;5028153;28;20223;-64
2021/12/13 03:15:51;;;;;;;14.87;11.17;;;;;;;4.28;69.60;100241.91;5040737;28;20235;-64
2021/12/13 03:18:24;;;;;;;16.20;11.33;;;;;;;4.53;69.55;100241.69;5045569;28;20234;-64
2021/12/13 03:21:10;;;;;;;15.13;10.80;;;;;;;4.15;71.59;100242.03;5039060;28;20225;-64
2021/12/13 03:23:52;;;;;;;16.63;13.67;;;;;;;4.72;69.91;100243.72;5044868;28;20333;-64
2021/12/13 03:26:33;;;;;;;16.67;11.13;;;;;;;3.42;73.46;100233.41;5044905;28;21457;-64
2021/12/13 03:29:12;;;;;;;17.93;12.43;;;;;;;3.71;73.92;100243.59;5011963;23;20880;-70
2021/12/13 03:31:46;;;;;;;16.27;11.77;;;;;;;4.47;71.24;100222.84;4987201;28;20226;-69
2021/12/13 03:34:18;;;;;;;17.00;12.60;;;;;;;3.79;73.36;100228.03;4992149;28;20691;-68
2021/12/13 03:37:06;;;;;;;19.23;12.60;;;;;;;3.92;72.87;100223.50;4986810;28;20234;-68
2021/12/13 03:39:35;;;;;;;18.10;12.67;;;;;;;4.40;71.59;100218.97;4985843;28;20229;-68
2021/12/13 03:42:14;;;;;;;23.17;13.90;;;;;;;4.77;70.09;100205.50;5006410;28;20217;-68
2021/12/13 03:44:47;;;;;;;18.03;13.10;;;;;;;3.86;72.75;100205.50;4998628;28;20233;-68
2021/12/13 03:47:20;;;;;;;19.13;13.33;;;;;;;4.02;72.22;100222.81;4988169;28;20225;-70
2021/12/13 03:49:52;;;;;;;21.57;13.10;;;;;;;3.56;73.86;100225.34;5010096;28;20217;-68
2021/12/13 03:52:23;;;;;;;19.23;13.57;;;;;;;3.64;75.23;100247.66;4981574;28;20234;-69
2021/12/13 03:54:53;;;;;;;20.70;13.40;;;;;;;3.76;74.26;100247.59;5008089;28;20755;-68
2021/12/13 03:57:20;;;;;;;18.00;12.97;;;;;;;3.70;75.02;100249.84;5010701;28;20218;-68
2021/12/13 03:59:48;;;;;;;24.53;13.70;;;;;;;3.81;74.10;100241.97;4983821;28;20226;-68
2021/12/13 04:02:24;;;;;;;23.07;13.73;;;;;;;3.89;72.84;100231.66;5004658;28;20705;-68
2021/12/13 04:05:04;;;;;;;26.00;14.77;;;;;;;3.68;74.46;100242.03;5009506;28;20232;-68
2021/12/13 04:07:50;;;;;;;23.43;15.13;;;;;;;3.83;73.47;100223.34;4987883;28;20237;-70
2021/12/13 04:10:26;;;;;;;23.50;14.13;;;;;;;3.97;73.21;100229.25;4989917;28;20774;-70
2021/12/13 04:12:56;;;;;;;21.13;14.03;;;;;;;3.20;75.26;100231.50;5008587;28;20239;-68
2021/12/13 04:15:46;;;;;;;20.03;14.07;;;;;;;3.36;76.08;100255.00;5004672;28;20332;-68
2021/12/13 04:18:28;;;;;;;19.73;14.50;;;;;;;3.68;74.93;100242.03;5003002;28;20837;-68
2021/12/13 04:21:05;;;;;;;21.20;15.47;;;;;;;3.50;75.47;100253.97;5009145;28;20869;-68
2021/12/13 04:23:34;;;;;;;21.93;15.03;;;;;;;3.85;74.04;100245.22;5008672;28;20227;-70
2021/12/13 04:26:04;;;;;;;27.43;17.03;;;;;;;3.71;73.92;100230.41;4964114;28;20226;-73
2021/12/13 04:28:53;;;;;;;23.37;15.93;;;;;;;4.20;72.82;100234.59;5005797;28;20230;-73
2021/12/13 04:31:25;;;;;;;23.93;16.23;;;;;;;4.27;72.78;100219.94;4984978;28;21726;-70
2021/12/13 04:33:59;;;;;;;21.87;14.97;;;;;;;4.40;71.52;100214.56;4988801;28;20610;-68
2021/12/13 04:36:28;;;;;;;22.13;15.20;;;;;;;4.22;72.40;100221.28;4989005;28;21522;-68
2021/12/13 04:38:59;;;;;;;22.87;14.47;;;;;;;4.07;72.42;100225.94;4999394;28;20583;-71
2021/12/13 04:41:37;;;;;;;24.60;16.27;;;;;;;3.80;73.47;100240.28;4993773;28;20233;-68
2021/12/13 04:44:08;;;;;;;19.60;13.67;;;;;;;3.89;73.09;100229.00;4996825;28;20225;-68
2021/12/13 04:46:37;;;;;;;21.00;14.27;;;;;;;2.74;78.16;100251.47;5004028;28;20236;-68
2021/12/13 04:49:14;;;;;;;21.50;14.83;;;;;;;3.87;73.48;100222.19;5007958;28;20744;-68
2021/12/13 04:51:57;;;;;;;24.03;14.70;;;;;;;3.38;76.29;100256.53;5008204;28;20232;-70
2021/12/13 04:54:27;;;;;;;19.87;13.63;;;;;;;3.33;74.93;100236.75;5007222;28;20782;-68
2021/12/13 04:56:57;;;;;;;20.47;14.57;;;;;;;2.82;76.98;100246.50;5008353;28;20283;-69
2021/12/13 04:59:25;;;;;;;20.97;13.60;;;;;;;3.73;75.39;100229.34;5003770;28;20226;-69
2021/12/13 05:01:55;;;;;;;25.53;13.67;;;;;;;4.60;70.90;100214.75;5008741;28;20225;-69
2021/12/13 05:04:23;;;;;;;19.67;13.93;;;;;;;4.61;70.96;100208.53;5009604;28;20235;-69
2021/12/13 05:06:53;;;;;;;21.13;14.90;;;;;;;3.66;74.56;100241.31;5008651;28;20236;-69
2021/12/13 05:09:22;;;;;;;23.43;14.17;;;;;;;3.31;77.00;100257.94;5000280;28;20235;-69
2021/12/13 05:11:56;;;;;;;20.70;14.20;;;;;;;3.53;75.51;100240.56;4997598;28;20710;-69
2021/12/13 05:14:31;;;;;;;24.07;14.87;;;;;;;1.69;82.81;100284.09;4989025;28;20228;-70
2021/12/13 05:17:05;;;;;;;25.23;16.70;;;;;;;1.59;83.77;100283.03;4988862;28;20236;-69
2021/12/13 05:19:39;;;;;;;32.13;20.40;;;;;;;1.38;84.95;100288.69;4989826;28;20642;-70
2021/12/13 05:22:08;;;;;;;29.17;19.20;;;;;;;1.31;85.00;100288.25;4989334;28;20225;-68
2021/12/13 05:24:44;;;;;;;34.07;19.50;;;;;;;1.55;85.05;100288.50;4988827;28;20237;-68
2021/12/13 05:27:16;;;;;;;28.13;18.60;;;;;;;1.16;84.41;100287.47;4989150;28;20611;-69
2021/12/13 05:29:47;;;;;;;27.33;18.93;;;;;;;1.33;83.90;100290.78;4989499;28;20244;-71
2021/12/13 05:32:26;;;;;;;24.07;17.40;;;;;;;1.29;83.70;100294.56;4988959;28;20228;-70
2021/12/13 05:34:58;;;;;;;31.50;18.63;;;;;;;0.90;85.32;100299.59;4988812;28;20617;-69
2021/12/13 05:37:38;;;;;;;24.10;15.07;;;;;;;0.89;85.70;100302.31;4989608;28;20728;-68
2021/12/13 05:40:12;;;;;;;19.30;14.27;;;;;;;0.95;86.04;100308.03;5000633;28;20232;-70
2021/12/13 05:42:45;;;;;;;21.77;14.40;;;;;;;0.70;87.05;100300.84;4995646;28;20222;-68
2021/12/13 05:45:19;;;;;;;19.97;14.33;;;;;;;0.91;85.77;100292.56;4999188;28;20234;-68
2021/12/13 05:48:05;;;;;;;18.70;13.43;;;;;;;1.15;85.17;100283.13;4989343;28;20286;-71
2021/12/13 05:50:40;;;;;;;18.83;12.27;;;;;;;1.34;85.36;100297.72;4993090;28;20232;-69
2021/12/13 05:53:11;;;;;;;20.17;14.17;;;;;;;1.92;82.63;100267.63;4992679;28;20684;-69
2021/12/13 05:55:50;;;;;;;16.77;13.20;;;;;;;3.06;78.63;100227.25;5015571;28;20233;-69
2021/12/13 05:58:53;;;;;;;20.53;13.77;;;;;;;3.62;76.50;100216.09;5006110;28;21699;-69
2021/12/13 06:01:27;;;;;;;25.43;14.60;;;;;;;3.35;74.90;100225.13;5008205;28;20603;-69
2021/12/13 06:04:07;;;;;;;21.30;14.30;;;;;;;2.03;80.17;100289.75;5005780;28;20231;-69
2021/12/13 06:06:46;;;;;;;19.90;14.20;;;;;;;2.35;80.13;100273.56;5007778;28;20263;-69
2021/12/13 06:09:39;;;;;;;20.43;14.10;;;;;;;1.99;81.72;100293.50;4991206;28;20735;-69
2021/12/13 06:12:10;;;;;;;22.93;13.83;;;;;;;1.55;82.52;100301.63;5000419;28;20230;-69
2021/12/13 06:14:38;;;;;;;18.13;13.53;;;;;;;3.72;75.35;100225.00;5007512;28;20612;-69
2021/12/13 06:17:16;;;;;;;20.40;13.93;;;;;;;3.32;77.54;100241.19;5006287;28;20229;-69
2021/12/13 06:20:07;;;;;;;26.13;16.67;;;;;;;4.01;73.45;100210.56;5006654;28;20767;-69
2021/12/13 06:22:35;;;;;;;26.67;17.73;;;;;;;4.33;71.45;100205.41;5007084;28;20742;-68
2021/12/13 06:25:09;;;;;;;27.63;20.23;;;;;;;4.15;71.66;100213.81;5007394;28;20225;-69
2021/12/13 06:28:04;;;;;;;25.93;18.50;;;;;;;4.09;72.25;100222.19;5007929;28;20225;-69
2021/12/13 06:30:34;;;;;;;21.63;16.20;;;;;;;4.24;71.49;100227.28;5005546;28;20803;-69
2021/12/13 06:33:08;;;;;;;22.37;16.03;;;;;;;4.33;71.83;100234.47;5005511;28;20909;-69
2021/12/13 06:35:38;;;;;;;21.07;15.90;;;;;;;3.61;73.27;100246.09;4994648;28;20240;-70
2021/12/13 06:38:36;;;;;;;24.80;16.97;;;;;;;3.92;72.99;100252.53;4993623;28;20232;-70
2021/12/13 06:41:20;;;;;;;27.47;16.20;;;;;;;3.55;73.82;100267.66;4997266;28;20829;-69
2021/12/13 06:43:52;;;;;;;24.37;16.73;;;;;;;3.57;72.58;100252.53;5003714;28;20619;-69
2021/12/13 06:46:22;;;;;;;24.87;17.50;;;;;;;3.29;75.05;100285.34;5007604;28;20243;-69
2021/12/13 06:49:11;;;;;;;30.10;17.57;;;;;;;2.83;76.52;100300.91;5007151;28;20232;-69
2021/12/13 06:51:41;;;;;;;27.47;16.80;;;;;;;3.30;75.18;100292.31;4967665;28;20236;-70
2021/12/13 06:54:12;;;;;;;25.40;16.03;;;;;;;4.14;72.06;100257.00;4999886;28;20232;-69
2021/12/13 06:56:41;;;;;;;25.47;17.83;;;;;;;4.05;72.05;100262.19;4992295;28;20709;-69
2021/12/13 06:59:14;;;;;;;29.20;18.60;;;;;;;4.77;69.41;100253.06;5002938;28;20743;-70
2021/12/13 07:01:52;;;;;;;30.47;20.27;;;;;;;4.72;69.69;100254.28;5005877;28;20254;-69
2021/12/13 07:04:19;;;;;;;29.17;19.63;;;;;;;4.15;72.04;100268.44;4990908;28;20278;-69
2021/12/13 07:06:46;;;;;;;29.57;19.40;;;;;;;4.58;70.66;100265.09;5005275;28;20240;-70
2021/12/13 07:09:21;;;;;;;31.60;18.70;;;;;;;4.83;69.55;100266.63;5002519;28;20232;-69
2021/12/13 07:11:56;;;;;;;32.97;20.17;;;;;;;5.06;68.76;100274.59;5005552;28;20603;-69
2021/12/13 07:14:37;;;;;;;34.43;20.83;;;;;;;5.21;67.82;100262.75;5003693;28;20323;-69
2021/12/13 07:17:31;;;;;;;32.03;20.93;;;;;;;5.14;68.64;100269.50;4995213;28;20791;-69
2021/12/13 07:20:00;;;;;;;32.67;19.30;;;;;;;4.65;69.74;100265.44;4996540;28;20238;-69
2021/12/13 07:22:30;;;;;;;36.80;19.93;;;;;;;4.10;70.95;100270.59;5002465;28;20728;-69
2021/12/13 07:25:03;;;;;;;29.53;18.97;;;;;;;3.80;73.51;100301.81;5009910;28;20657;-69
2021/12/13 07:27:40;;;;;;;41.07;21.77;;;;;;;3.68;73.50;100309.81;5003275;28;20234;-69
2021/12/13 07:30:14;;;;;;;40.33;23.33;;;;;;;4.39;71.39;100299.19;4997030;28;20231;-69
2021/12/13 07:32:47;;;;;;;38.40;21.90;;;;;;;3.79;71.75;100278.16;5010785;28;20856;-69
2021/12/13 07:35:38;;;;;;;37.83;23.13;;;;;;;3.74;73.68;100315.47;5005049;28;20605;-69
2021/12/13 07:38:06;;;;;;;36.73;21.53;;;;;;;4.23;72.05;100307.44;4995871;28;20240;-69
2021/12/13 07:40:58;;;;;;;38.13;23.00;;;;;;;4.00;73.14;100303.94;5007899;28;20225;-69
2021/12/13 07:43:27;;;;;;;36.63;22.63;;;;;;;4.22;72.04;100316.34;5001397;28;20843;-69
2021/12/13 07:46:10;;;;;;;36.70;21.47;;;;;;;4.31;72.33;100326.19;5008454;28;20980;-69
2021/12/13 07:48:40;;;;;;;35.00;20.73;;;;;;;4.14;72.34;100327.47;5010515;28;20228;-69
2021/12/13 07:51:17;;;;;;;38.63;21.93;;;;;;;4.00;72.61;100317.13;5011166;28;20228;-69
2021/12/13 07:53:50;;;;;;;35.20;21.83;;;;;;;3.85;73.76;100330.50;5008959;28;20228;-69
2021/12/13 07:56:29;;;;;;;35.93;22.27;;;;;;;4.42;72.04;100320.09;5000266;28;21586;-69
2021/12/13 07:59:08;;;;;;;33.27;21.20;;;;;;;4.45;71.45;100312.78;4990035;28;20225;-69
2021/12/13 08:01:43;;;;;;;35.43;20.97;;;;;;;2.25;79.11;100347.03;5000351;28;20226;-69
2021/12/13 08:04:14;;;;;;;38.70;22.23;;;;;;;3.15;78.64;100353.13;5009648;28;20619;-69
2021/12/13 08:06:55;;;;;;;32.23;19.83;;;;;;;4.11;74.43;100323.28;5006325;28;20235;-69
2021/12/13 08:09:27;;;;;;;32.23;19.63;;;;;;;4.11;73.45;100315.34;5005335;28;20229;-69
2021/12/13 08:12:12;;;;;;;34.70;21.13;;;;;;;4.31;71.65;100307.69;5007921;28;20236;-69
2021/12/13 08:14:42;;;;;;;31.53;18.10;;;;;;;3.91;75.04;100339.75;5002026;28;20226;-69
2021/12/13 08:17:26;;;;;;;31.10;18.17;;;;;;;4.13;73.35;100310.81;5008517;28;20229;-69
2021/12/13 08:19:57;;;;;;;29.33;18.70;;;;;;;3.86;74.63;100319.00;4992399;28;20232;-69
2021/12/13 08:22:28;;;;;;;33.03;20.93;;;;;;;4.06;75.37;100327.19;5010513;28;20235;-69
2021/12/13 08:25:06;;;;;;;33.90;20.50;;;;;;;4.49;73.11;100308.94;5009062;28;20231;-69
2021/12/13 08:27:50;;;;;;;39.17;19.70;;;;;;;4.25;74.80;100334.56;5010159;28;20229;-69
2021/12/13 08:30:52;;;;;;;27.63;18.77;;;;;;;3.85;76.30;100340.22;4992542;28;21612;-70
2021/12/13 08:33:19;;;;;;;31.90;18.27;;;;;;;4.17;74.77;100314.03;4995970;28;21976;-69
2021/12/13 08:35:52;;;;;;;32.00;17.30;;;;;;;3.62;76.23;100326.91;5007742;28;20701;-69
2021/12/13 08:38:32;;;;;;;26.80;16.93;;;;;;;4.76;73.83;100310.38;5003822;28;21024;-70
2021/12/13 08:41:18;;;;;;;30.53;17.60;;;;;;;4.46;74.67;100309.16;4998090;28;23173;-69
2021/12/13 08:43:54;;;;;;;35.67;18.07;;;;;;;5.15;71.15;100294.97;5007704;28;20247;-70
2021/12/13 08:46:42;;;;;;;35.47;20.50;;;;;;;5.37;70.70;100301.19;4996854;28;20759;-69
2021/12/13 08:49:27;;;;;;;38.30;20.77;;;;;;;3.01;78.60;100338.25;4991613;28;20628;-70
2021/12/13 08:52:04;;;;;;;37.57;18.50;;;;;;;3.21;79.82;100354.47;5008128;28;20249;-69
2021/12/13 08:54:39;;;;;;;32.57;18.80;;;;;;;2.29;83.47;100365.16;4996534;28;20222;-70
2021/12/13 08:57:26;;;;;;;33.30;18.63;;;;;;;2.53;83.51;100382.03;4991223;28;20766;-69
2021/12/13 08:59:54;;;;;;;35.80;20.90;;;;;;;4.00;78.13;100333.81;5009546;28;20240;-69
2021/12/13 09:02:27;;;;;;;38.30;19.63;;;;;;;4.36;76.68;100311.66;5006928;28;20612;-69
2021/12/13 09:05:10;;;;;;;42.80;23.20;;;;;;;4.71;75.56;100312.53;5008633;28;21304;-69
2021/12/13 09:08:06;;;;;;;37.87;18.83;;;;;;;4.06;77.06;100325.41;5009534;28;20706;-69
2021/12/13 09:10:36;;;;;;;38.20;20.83;;;;;;;4.16;77.58;100329.06;4993266;28;20224;-69
2021/12/13 09:13:03;;;;;;;52.97;28.13;;;;;;;4.72;75.11;100312.44;4984999;28;20290;-69
2021/12/13 09:15:33;;;;;;;38.23;20.33;;;;;;;4.76;74.12;100299.81;5007194;28;20223;-70
2021/12/13 09:18:02;;;;;;;45.23;24.33;;;;;;;4.35;76.25;100328.47;5001644;28;20746;-69
2021/12/13 09:20:34;;;;;;;52.73;21.17;;;;;;;4.73;74.88;100315.91;5009124;28;20236;-69
2021/12/13 09:23:10;;;;;;;33.87;19.87;;;;;;;5.10;73.78;100308.56;5008605;28;20612;-69
2021/12/13 09:25:50;;;;;;;39.53;19.07;;;;;;;4.39;75.78;100321.16;5005904;28;20229;-69
2021/12/13 09:28:29;;;;;;;34.90;17.87;;;;;;;4.99;74.46;100311.25;5007670;28;20794;-68
2021/12/13 09:31:04;;;;;;;37.47;17.00;;;;;;;3.86;78.33;100332.19;5008961;28;20609;-67
2021/12/13 09:33:46;;;;;;;29.50;15.57;;;;;;;3.29;83.01;100372.34;5003745;28;20233;-67
2021/12/13 09:36:34;;;;;;;32.07;15.80;;;;;;;3.60;80.47;100342.03;5000902;28;20873;-68
2021/12/13 09:39:22;;;;;;;32.23;14.67;;;;;;;2.51;85.52;100376.84;5000726;28;20605;-67
2021/12/13 09:41:53;;;;;;;34.13;16.10;;;;;;;3.19;85.65;100378.31;5002761;28;20221;-68
2021/12/13 09:44:32;;;;;;;26.33;15.27;;;;;;;3.71;83.41;100347.38;4994939;28;20739;-67
2021/12/13 09:47:11;;;;;;;29.80;14.27;;;;;;;3.48;82.09;100351.66;5012004;28;20221;-68
2021/12/13 09:49:46;;;;;;;27.33;13.80;;;;;;;4.06;80.03;100325.41;5005742;28;20232;-67
2021/12/13 09:52:24;;;;;;;25.27;12.53;;;;;;;4.97;75.73;100315.78;5008031;28;20474;-67
2021/12/13 09:55:14;;;;;;;23.17;12.10;;;;;;;5.06;76.07;100316.88;5007521;28;20265;-67
2021/12/13 09:58:07;;;;;;;19.70;11.17;;;;;;;4.34;77.55;100318.88;5007077;28;20247;-68
2021/12/13 10:00:41;;;;;;;17.50;10.23;;;;;;;5.10;74.49;100307.72;5007550;28;20797;-67
2021/12/13 10:03:17;;;;;;;17.67;10.50;;;;;;;5.17;74.58;100308.91;4993808;28;20844;-68
2021/12/13 10:05:48;;;;;;;19.33;10.97;;;;;;;4.77;75.94;100303.28;5003383;28;20233;-67
2021/12/13 10:08:25;;;;;;;21.70;11.47;;;;;;;5.02;74.95;100300.41;4999895;28;21731;-68
2021/12/13 10:11:05;;;;;;;16.50;9.47;;;;;;;5.31;73.84;100305.19;4989524;28;20230;-67
2021/12/13 10:13:36;;;;;;;16.50;9.47;;;;;;;4.79;75.32;100294.28;5008272;28;20239;-68
2021/12/13 10:16:11;;;;;;;18.47;9.57;;;;;;;5.25;74.00;100287.97;4995262;28;20221;-67
2021/12/13 10:18:43;;;;;;;17.47;10.87;;;;;;;5.39;73.88;100286.03;4999616;28;20489;-67
2021/12/13 10:21:21;;;;;;;19.60;11.63;;;;;;;5.28;74.06;100289.56;5008405;28;20234;-68
2021/12/13 10:23:53;;;;;;;21.67;10.63;;;;;;;3.89;77.86;100292.34;5006410;28;20227;-68
2021/12/13 10:26:31;;;;;;;22.53;11.67;;;;;;;4.30;79.47;100311.31;5006531;28;20240;-67
2021/12/13 10:29:01;;;;;;;20.77;10.73;;;;;;;4.66;77.49;100293.56;5007591;28;20251;-67
2021/12/13 10:31:36;;;;;;;16.70;10.90;;;;;;;5.32;74.75;100279.56;5007802;28;20706;-67
2021/12/13 10:34:07;;;;;;;17.87;11.90;;;;;;;5.04;74.15;100260.63;4988443;28;20221;-68
2021/12/13 10:36:37;;;;;;;22.60;12.97;;;;;;;5.63;74.25;100270.78;4996762;28;20230;-67
2021/12/13 10:39:10;;;;;;;19.87;12.47;;;;;;;5.03;74.68;100266.88;4996419;28;20265;-67
2021/12/13 10:42:06;;;;;;;21.07;12.70;;;;;;;3.88;81.17;100318.88;5004827;28;20221;-67
2021/12/13 10:44:35;;;;;;;19.93;12.30;;;;;;;4.85;76.54;100266.50;5007541;28;20233;-68
2021/12/13 10:47:09;;;;;;;19.33;13.47;;;;;;;5.51;75.62;100273.59;4991104;28;20577;-68
2021/12/13 10:49:40;;;;;;;21.57;13.77;;;;;;;5.05;75.02;100251.72;5002624;28;20240;-67
2021/12/13 10:52:21;;;;;;;18.47;12.67;;;;;;;5.95;72.79;100272.56;4992902;28;20743;-68
2021/12/13 10:54:52;;;;;;;18.30;11.77;;;;;;;6.13;70.53;100248.13;5006740;28;20224;-67
2021/12/13 10:57:25;;;;;;;21.13;11.83;;;;;;;6.12;71.50;100254.38;5007585;28;20217;-68
2021/12/13 10:59:53;;;;;;;21.63;12.23;;;;;;;6.77;69.01;100247.84;5006635;28;20592;-68
2021/12/13 11:03:45;;;;;;;18.13;11.83;;;;;;;5.60;73.50;100278.97;4996994;28;20360;-68
2021/12/13 11:06:15;;;;;;;16.60;11.37;;;;;;;5.78;71.91;100279.28;4980534;28;20672;-69
2021/12/13 11:08:42;;;;;;;20.27;13.17;;;;;;;5.47;73.55;100279.13;4979006;28;20233;-69
2021/12/13 11:11:26;;;;;;;19.83;13.67;;;;;;;5.56;74.24;100282.81;4996965;28;20225;-68
2021/12/13 11:14:04;;;;;;;20.60;13.83;;;;;;;5.86;72.52;100280.44;5001049;28;20618;-68
2021/12/13 11:16:37;;;;;;;20.80;14.33;;;;;;;5.61;72.81;100285.97;4998504;28;20221;-68
2021/12/13 11:19:08;;;;;;;18.83;13.57;;;;;;;5.94;72.18;100278.81;5008545;28;20803;-68
2021/12/13 11:21:36;;;;;;;22.67;15.30;;;;;;;6.06;71.60;100270.81;5001452;28;20235;-68
2021/12/13 11:24:08;;;;;;;21.60;14.30;;;;;;;5.85;72.71;100274.31;4978197;28;20229;-68
2021/12/13 11:26:39;;;;;;;27.10;16.50;;;;;;;6.13;72.42;100275.44;4991679;28;20809;-68
2021/12/13 11:29:09;;;;;;;27.30;15.87;;;;;;;5.49;74.59;100278.19;4988914;28;20630;-68
2021/12/13 11:31:55;;;;;;;22.10;14.43;;;;;;;5.62;73.50;100278.84;4996964;28;20233;-67
2021/12/13 11:34:47;;;;;;;24.70;14.67;;;;;;;5.94;72.91;100275.34;4983681;28;21727;-69
2021/12/13 11:37:42;;;;;;;24.63;15.60;;;;;;;5.21;75.99;100285.69;4958958;28;20647;-68
2021/12/13 11:40:47;;;;;;;25.33;15.13;;;;;;;5.69;74.64;100281.84;4986037;28;20628;-68
2021/12/13 11:44:03;;;;;;;24.53;14.37;;;;;;;5.72;73.02;100266.53;4993318;28;20529;-68
2021/12/13 11:47:18;;;;;;;25.23;15.57;;;;;;;6.25;72.27;100265.59;4981105;28;20229;-68
2021/12/13 11:49:48;;;;;;;23.70;14.63;;;;;;;6.49;71.13;100253.91;4978693;28;20226;-68
2021/12/13 11:52:53;;;;;;;22.33;15.70;;;;;;;4.87;75.94;100275.16;4943162;28;20790;-68
2021/12/13 11:55:43;;;;;;;21.30;13.93;;;;;;;5.07;78.10;100292.09;4974942;28;20776;-68
2021/12/13 11:58:33;;;;;;;23.47;15.53;;;;;;;5.00;76.90;100283.00;4972249;28;20234;-67
2021/12/13 12:01:28;;;;;;;23.73;15.63;;;;;;;5.60;75.36;100275.50;4980268;28;20226;-68
2021/12/13 12:04:07;;;;;;;19.50;13.53;;;;;;;4.91;77.92;100288.06;4961486;28;20253;-68
2021/12/13 12:06:52;;;;;;;20.97;14.30;;;;;;;5.58;76.41;100283.56;5008524;28;20604;-68
2021/12/13 12:09:32;;;;;;;22.40;14.50;;;;;;;5.20;76.73;100274.28;4976651;28;20630;-68